createdAt,value
2018-03-27T00:00:04.127Z,53.23
2018-03-27T00:02:32.234Z,51.07
2018-03-27T00:05:00.296Z,51.50
2018-03-27T00:07:28.371Z,55.20
2018-03-27T00:09:56.440Z,53.77
2018-03-27T00:12:24.519Z,56.70
2018-03-27T00:14:52.567Z,52.57
2018-03-27T00:17:20.654Z,54.57
2018-03-27T00:19:48.714Z,51.40
2018-03-27T00:22:16.856Z,54.73
2018-03-27T00:24:45.678Z,67.30
2018-03-27T00:27:13.262Z,62.40
2018-03-27T00:29:53.194Z,62.47
2018-03-27T00:32:34.071Z,61.77
2018-03-27T00:35:13.901Z,54.33
2018-03-27T00:37:53.723Z,50.43
2018-03-27T00:40:33.637Z,56.30
2018-03-27T00:43:02.429Z,53.20
2018-03-27T00:45:30.631Z,52.13
2018-03-27T00:47:59.370Z,53.83
2018-03-27T00:50:27.423Z,53.90
2018-03-27T00:52:56.269Z,53.43
2018-03-27T00:55:24.365Z,52.30
2018-03-27T00:57:52.454Z,51.90
2018-03-27T01:00:20.529Z,50.30
2018-03-27T01:02:48.597Z,52.07
2018-03-27T01:05:16.671Z,50.67
2018-03-27T01:07:44.782Z,54.03
2018-03-27T01:10:12.848Z,53.37
2018-03-27T01:12:40.929Z,54.43
2018-03-27T01:15:09.016Z,52.77
2018-03-27T01:17:37.088Z,53.93
2018-03-27T01:20:05.253Z,52.87
2018-03-27T01:22:34.082Z,51.93
2018-03-27T01:25:02.454Z,51.63
2018-03-27T01:27:30.490Z,50.33
2018-03-27T01:29:58.560Z,53.80
2018-03-27T01:32:26.630Z,50.37
2018-03-27T01:34:54.720Z,52.53
2018-03-27T01:37:22.852Z,45.00
2018-03-27T01:39:50.926Z,50.47
2018-03-27T01:42:19.796Z,50.83
2018-03-27T01:44:47.879Z,49.63
2018-03-27T01:47:15.928Z,49.67
2018-03-27T01:49:44.098Z,51.00
2018-03-27T01:52:12.936Z,48.20
2018-03-27T01:54:41.164Z,44.97
2018-03-27T01:57:09.298Z,47.40
2018-03-27T01:59:37.374Z,48.10
2018-03-27T02:02:05.502Z,49.53
2018-03-27T02:04:33.576Z,47.10
2018-03-27T02:07:01.647Z,48.30
2018-03-27T02:09:29.734Z,48.47
2018-03-27T02:12:04.192Z,51.67
2018-03-27T02:14:38.062Z,50.90
2018-03-27T02:17:11.877Z,50.70
2018-03-27T02:19:45.560Z,47.57
2018-03-27T02:22:13.629Z,42.77
2018-03-27T02:24:41.702Z,46.67
2018-03-27T02:27:09.764Z,48.60
2018-03-27T02:29:37.838Z,47.93
2018-03-27T02:32:05.917Z,44.43
2018-03-27T02:34:34.003Z,43.93
2018-03-27T02:37:02.070Z,45.20
2018-03-27T02:39:31.074Z,47.67
2018-03-27T02:41:59.909Z,43.67
2018-03-27T02:44:27.995Z,45.60
2018-03-27T02:46:56.071Z,45.53
2018-03-27T02:49:24.133Z,44.90
2018-03-27T02:51:52.206Z,44.90
2018-03-27T02:54:21.967Z,44.83
2018-03-27T02:56:50.090Z,54.83
2018-03-27T02:59:18.166Z,47.00
2018-03-27T03:01:47.131Z,46.13
2018-03-27T03:04:15.171Z,45.83
2018-03-27T03:06:44.022Z,47.73
2018-03-27T03:09:12.080Z,47.07
2018-03-27T03:11:40.155Z,51.13
2018-03-27T03:14:09.019Z,50.67
2018-03-27T03:16:37.115Z,53.03
2018-03-27T03:19:05.270Z,50.73
2018-03-27T03:21:33.752Z,49.57
2018-03-27T03:24:03.626Z,51.67
2018-03-27T03:26:31.688Z,48.27
2018-03-27T03:28:59.825Z,50.40
2018-03-27T03:31:27.903Z,44.80
2018-03-27T03:34:00.685Z,46.83
2018-03-27T03:36:29.552Z,52.53
2018-03-27T03:38:57.643Z,45.50
2018-03-27T03:41:25.713Z,50.93
2018-03-27T03:43:53.774Z,48.70
2018-03-27T03:46:21.852Z,48.33
2018-03-27T03:48:49.939Z,51.87
2018-03-27T03:51:18.782Z,52.20
2018-03-27T03:53:47.662Z,49.97
2018-03-27T03:56:15.748Z,52.50
2018-03-27T03:58:43.823Z,53.37
2018-03-27T04:01:12.079Z,56.57
2018-03-27T04:03:40.110Z,52.93
2018-03-27T04:06:08.197Z,56.60
2018-03-27T04:08:36.268Z,56.63
2018-03-27T04:11:05.068Z,52.57
2018-03-27T04:13:33.157Z,50.87
2018-03-27T04:16:01.640Z,55.57
2018-03-27T04:18:29.696Z,51.23
2018-03-27T04:20:57.774Z,58.00
2018-03-27T04:23:25.886Z,109.93
2018-03-27T04:25:53.990Z,84.63
2018-03-27T04:28:22.090Z,127.07
2018-03-27T04:30:50.159Z,59.93
2018-03-27T04:33:18.299Z,78.47
2018-03-27T04:35:47.424Z,58.27
2018-03-27T04:38:15.504Z,66.20
2018-03-27T04:40:43.644Z,78.00
2018-03-27T04:43:11.706Z,75.50
2018-03-27T04:45:39.795Z,185.23
2018-03-27T04:48:07.880Z,95.83
2018-03-27T04:50:35.930Z,73.07
2018-03-27T04:53:04.001Z,73.97
2018-03-27T04:55:32.061Z,80.17
2018-03-27T04:58:00.902Z,63.07
2018-03-27T05:00:28.967Z,60.07
2018-03-27T05:02:57.045Z,64.23
2018-03-27T05:05:25.252Z,63.70
2018-03-27T05:07:53.394Z,65.20
2018-03-27T05:10:22.289Z,56.20
2018-03-27T05:12:50.349Z,74.13
2018-03-27T05:15:18.422Z,80.63
2018-03-27T05:17:46.482Z,79.80
2018-03-27T05:20:14.554Z,167.10
2018-03-27T05:22:42.651Z,85.50
2018-03-27T05:25:10.714Z,68.60
2018-03-27T05:27:38.793Z,66.13
2018-03-27T05:30:06.875Z,66.47
2018-03-27T05:32:35.697Z,64.93
2018-03-27T05:35:03.770Z,64.73
2018-03-27T05:37:31.845Z,58.70
2018-03-27T05:39:59.902Z,55.67
2018-03-27T05:42:27.990Z,66.57
2018-03-27T05:44:56.062Z,66.00
2018-03-27T05:47:24.136Z,77.87
2018-03-27T05:49:52.214Z,106.43
2018-03-27T05:52:20.290Z,74.80
2018-03-27T05:54:48.360Z,66.90
2018-03-27T05:57:16.415Z,78.10
2018-03-27T05:59:44.482Z,81.43
2018-03-27T06:02:13.329Z,74.57
2018-03-27T06:04:41.386Z,66.20
2018-03-27T06:07:09.466Z,67.37
2018-03-27T06:09:37.530Z,69.13
2018-03-27T06:12:06.374Z,65.93
2018-03-27T06:14:34.450Z,62.47
2018-03-27T06:17:02.524Z,64.03
2018-03-27T06:19:30.591Z,71.40
2018-03-27T06:21:58.671Z,75.03
2018-03-27T06:24:27.601Z,74.97
2018-03-27T06:26:55.678Z,74.17
2018-03-27T06:29:23.742Z,72.80
2018-03-27T06:31:52.585Z,85.63
2018-03-27T06:34:20.660Z,78.57
2018-03-27T06:36:48.754Z,73.77
2018-03-27T06:39:16.834Z,72.33
2018-03-27T06:41:44.894Z,74.23
2018-03-27T06:44:12.971Z,75.17
2018-03-27T06:46:41.024Z,73.27
2018-03-27T06:49:09.095Z,74.67
2018-03-27T06:51:37.158Z,76.83
2018-03-27T06:54:05.232Z,75.43
2018-03-27T06:56:33.292Z,68.93
2018-03-27T06:59:01.373Z,72.80
2018-03-27T07:01:29.473Z,71.03
2018-03-27T07:03:57.515Z,70.30
2018-03-27T07:06:25.595Z,70.40
2018-03-27T07:08:53.696Z,77.77
2018-03-27T07:11:21.720Z,77.13
2018-03-27T07:13:49.809Z,67.77
2018-03-27T07:16:17.922Z,64.43
2018-03-27T07:18:45.990Z,71.67
2018-03-27T07:21:14.073Z,63.83
2018-03-27T07:23:42.160Z,61.47
2018-03-27T07:26:10.230Z,62.30
2018-03-27T07:28:38.460Z,58.77
2018-03-27T07:31:06.534Z,55.73
2018-03-27T07:33:35.364Z,58.90
2018-03-27T07:36:03.483Z,51.23
2018-03-27T07:38:31.590Z,49.80
2018-03-27T07:40:59.652Z,53.60
2018-03-27T07:43:27.730Z,49.47
2018-03-27T07:45:55.798Z,50.57
2018-03-27T07:48:23.867Z,50.53
2018-03-27T07:50:51.934Z,49.07
2018-03-27T07:53:20.778Z,50.97
2018-03-27T07:55:48.856Z,47.47
2018-03-27T07:58:16.949Z,44.30
2018-03-27T08:00:45.053Z,45.37
2018-03-27T08:03:13.114Z,45.83
2018-03-27T08:05:41.195Z,44.07
2018-03-27T08:08:09.279Z,41.70
2018-03-27T08:10:37.347Z,41.63
2018-03-27T08:13:05.467Z,36.27
2018-03-27T08:15:33.528Z,38.20
2018-03-27T08:18:01.615Z,35.30
2018-03-27T08:20:29.672Z,33.97
2018-03-27T08:22:57.768Z,34.93
2018-03-27T08:25:25.841Z,42.10
2018-03-27T08:27:53.918Z,38.60
2018-03-27T08:30:22.748Z,39.53
2018-03-27T08:32:50.835Z,39.10
2018-03-27T08:35:18.907Z,45.13
2018-03-27T08:37:46.991Z,41.93
2018-03-27T08:40:15.075Z,44.77
2018-03-27T08:42:43.134Z,46.20
2018-03-27T08:45:11.227Z,38.40
2018-03-27T08:47:39.302Z,43.93
2018-03-27T08:50:07.408Z,41.47
2018-03-27T08:52:35.491Z,37.93
2018-03-27T08:55:03.570Z,38.27
2018-03-27T08:57:31.638Z,41.13
2018-03-27T08:59:59.925Z,36.90
2018-03-27T09:02:27.996Z,37.37
2018-03-27T09:04:56.845Z,34.93
2018-03-27T09:07:24.944Z,30.43
2018-03-27T09:09:53.023Z,28.57
2018-03-27T09:12:21.104Z,35.53
2018-03-27T09:14:50.105Z,36.47
2018-03-27T09:17:18.180Z,38.70
2018-03-27T09:19:46.254Z,37.67
2018-03-27T09:22:14.339Z,39.40
2018-03-27T09:24:42.417Z,32.87
2018-03-27T09:27:10.477Z,31.20
2018-03-27T09:29:38.583Z,30.73
2018-03-27T09:32:06.651Z,30.83
2018-03-27T09:34:35.492Z,29.07
2018-03-27T09:37:03.566Z,24.23
2018-03-27T09:39:31.654Z,29.57
2018-03-27T09:41:59.717Z,30.03
2018-03-27T09:44:27.810Z,27.37
2018-03-27T09:46:55.900Z,25.20
2018-03-27T09:49:24.748Z,21.60
2018-03-27T09:51:52.820Z,20.77
2018-03-27T09:54:21.025Z,22.37
2018-03-27T09:56:49.027Z,23.73
2018-03-27T09:59:17.113Z,24.20
2018-03-27T10:01:45.197Z,21.70
2018-03-27T10:04:13.276Z,20.70
2018-03-27T10:06:41.374Z,19.93
2018-03-27T10:09:09.451Z,21.67
2018-03-27T10:11:37.563Z,21.20
2018-03-27T10:14:05.859Z,20.53
2018-03-27T10:16:33.927Z,17.60
2018-03-27T10:19:02.391Z,19.70
2018-03-27T10:21:30.446Z,15.93
2018-03-27T10:23:58.802Z,17.87
2018-03-27T10:26:27.251Z,19.13
2018-03-27T10:28:56.323Z,17.80
2018-03-27T10:31:24.396Z,17.63
2018-03-27T10:33:52.480Z,18.67
2018-03-27T10:36:20.561Z,18.17
2018-03-27T10:38:48.661Z,15.83
2018-03-27T10:41:16.733Z,13.83
2018-03-27T10:43:44.800Z,12.43
2018-03-27T10:46:12.874Z,13.27
2018-03-27T10:48:40.992Z,15.27
2018-03-27T10:51:09.340Z,15.07
2018-03-27T10:53:37.543Z,13.70
2018-03-27T10:56:05.622Z,17.17
2018-03-27T10:58:33.780Z,16.97
2018-03-27T11:01:02.604Z,15.20
2018-03-27T11:03:30.688Z,14.23
2018-03-27T11:05:58.781Z,13.93
2018-03-27T11:08:26.896Z,13.57
2018-03-27T11:10:54.942Z,16.20
2018-03-27T11:13:23.030Z,15.33
2018-03-27T11:15:51.108Z,13.97
2018-03-27T11:18:19.349Z,16.17
2018-03-27T11:20:47.683Z,13.40
2018-03-27T11:23:15.806Z,15.43
2018-03-27T11:25:43.852Z,15.13
2018-03-27T11:28:11.916Z,16.23
2018-03-27T11:30:40.001Z,14.87
2018-03-27T11:33:08.073Z,14.67
2018-03-27T11:35:36.952Z,14.27
2018-03-27T11:38:05.030Z,17.50
2018-03-27T11:40:33.105Z,20.00
2018-03-27T11:43:01.181Z,18.10
2018-03-27T11:45:29.271Z,16.70
2018-03-27T11:47:57.345Z,16.93
2018-03-27T11:50:25.431Z,14.47
2018-03-27T11:52:53.886Z,15.97
2018-03-27T11:55:22.028Z,13.00
2018-03-27T11:57:50.093Z,14.93
2018-03-27T12:00:18.207Z,15.10
2018-03-27T12:02:47.046Z,13.67
2018-03-27T12:05:15.134Z,14.57
2018-03-27T12:07:43.213Z,15.60
2018-03-27T12:10:11.288Z,16.73
2018-03-27T12:12:40.134Z,16.97
2018-03-27T12:15:08.197Z,14.73
2018-03-27T12:17:36.398Z,17.17
2018-03-27T12:20:04.487Z,19.03
2018-03-27T12:22:32.661Z,15.20
2018-03-27T12:25:00.719Z,15.97
2018-03-27T12:27:28.795Z,15.27
2018-03-27T12:29:56.873Z,15.97
2018-03-27T12:32:25.182Z,14.87
2018-03-27T12:34:53.243Z,18.13
2018-03-27T12:37:21.324Z,13.93
2018-03-27T12:39:49.457Z,16.17
2018-03-27T12:42:17.563Z,13.87
2018-03-27T12:44:45.633Z,19.53
2018-03-27T12:47:13.713Z,12.67
2018-03-27T12:49:41.790Z,13.63
2018-03-27T12:52:09.875Z,12.90
2018-03-27T12:54:38.048Z,13.57
2018-03-27T12:57:06.107Z,12.40
2018-03-27T12:59:34.182Z,11.90
2018-03-27T13:02:02.267Z,13.13
2018-03-27T13:04:30.329Z,13.80
2018-03-27T13:06:58.405Z,13.43
2018-03-27T13:09:26.460Z,16.27
2018-03-27T13:11:54.547Z,14.60
2018-03-27T13:14:22.640Z,13.93
2018-03-27T13:16:50.727Z,14.53
2018-03-27T13:19:18.833Z,15.43
2018-03-27T13:21:47.703Z,15.97
2018-03-27T13:24:16.276Z,15.23
2018-03-27T13:26:44.358Z,15.40
2018-03-27T13:29:12.430Z,15.37
2018-03-27T13:31:40.524Z,14.30
2018-03-27T13:34:08.612Z,16.30
2018-03-27T13:36:36.703Z,16.37
2018-03-27T13:39:04.840Z,15.17
2018-03-27T13:41:33.631Z,14.70
2018-03-27T13:44:02.478Z,13.17
2018-03-27T13:46:30.557Z,15.43
2018-03-27T13:48:58.625Z,14.17
2018-03-27T13:51:26.726Z,15.57
2018-03-27T13:53:54.808Z,15.77
2018-03-27T13:56:22.893Z,13.73
2018-03-27T13:58:50.966Z,15.33
2018-03-27T14:01:19.046Z,14.17
2018-03-27T14:03:47.764Z,15.73
2018-03-27T14:06:15.848Z,14.13
2018-03-27T14:08:44.684Z,14.70
2018-03-27T14:11:12.755Z,19.23
2018-03-27T14:13:40.825Z,15.37
2018-03-27T14:16:08.884Z,19.17
2018-03-27T14:18:36.956Z,14.27
2018-03-27T14:21:05.868Z,15.40
2018-03-27T14:23:33.971Z,14.80
2018-03-27T14:26:02.069Z,17.13
2018-03-27T14:28:30.131Z,16.33
2018-03-27T14:30:58.322Z,153.73
2018-03-27T14:33:26.400Z,45.00
2018-03-27T14:35:54.465Z,23.27
2018-03-27T14:38:22.548Z,32.73
2018-03-27T14:40:50.614Z,26.83
2018-03-27T14:43:19.453Z,20.53
2018-03-27T14:45:47.520Z,24.57
2018-03-27T14:48:15.602Z,19.57
2018-03-27T14:50:44.646Z,17.87
2018-03-27T14:53:12.744Z,19.27
2018-03-27T14:55:40.821Z,19.73
2018-03-27T14:58:08.902Z,19.83
2018-03-27T15:00:36.973Z,20.77
2018-03-27T15:03:05.052Z,20.43
2018-03-27T15:05:33.203Z,35.93
2018-03-27T15:08:01.253Z,24.67
2018-03-27T15:10:29.325Z,25.70
2018-03-27T15:12:57.411Z,29.43
2018-03-27T15:15:25.477Z,26.73
2018-03-27T15:17:53.624Z,24.40
2018-03-27T15:20:21.672Z,23.70
2018-03-27T15:22:49.736Z,38.53
2018-03-27T15:25:17.784Z,55.40
2018-03-27T15:27:45.976Z,39.23
2018-03-27T15:30:14.786Z,27.67
2018-03-27T15:32:42.887Z,25.40
2018-03-27T15:35:10.945Z,24.40
2018-03-27T15:37:39.023Z,24.50
2018-03-27T15:40:07.244Z,24.00
2018-03-27T15:42:35.324Z,23.47
2018-03-27T15:45:04.305Z,55.30
2018-03-27T15:47:32.469Z,94.63
2018-03-27T15:50:01.330Z,57.50
2018-03-27T15:52:29.400Z,34.63
2018-03-27T15:54:57.533Z,39.93
2018-03-27T15:57:25.706Z,32.07
2018-03-27T15:59:54.582Z,26.83
2018-03-27T16:02:22.639Z,23.00
2018-03-27T16:04:51.730Z,24.60
2018-03-27T16:07:19.788Z,24.57
2018-03-27T16:09:47.873Z,24.13
2018-03-27T16:12:16.708Z,26.27
2018-03-27T16:14:44.826Z,39.47
2018-03-27T16:17:12.967Z,27.00
2018-03-27T16:19:41.057Z,23.50
2018-03-27T16:22:09.102Z,25.63
2018-03-27T16:24:37.940Z,24.67
2018-03-27T16:27:06.008Z,27.53
2018-03-27T16:29:34.138Z,35.37
2018-03-27T16:32:02.269Z,59.60
2018-03-27T16:34:31.709Z,30.43
2018-03-27T16:36:59.778Z,34.30
2018-03-27T16:39:28.504Z,30.63
2018-03-27T16:41:56.665Z,25.50
2018-03-27T16:44:24.758Z,23.77
2018-03-27T16:46:52.838Z,25.40
2018-03-27T16:49:20.978Z,24.80
2018-03-27T16:51:49.069Z,23.63
2018-03-27T16:54:17.151Z,26.10
2018-03-27T16:56:45.215Z,23.47
2018-03-27T16:59:14.120Z,23.90
2018-03-27T17:01:42.200Z,24.53
2018-03-27T17:04:10.272Z,23.90
2018-03-27T17:06:38.358Z,66.37
2018-03-27T17:09:06.524Z,49.37
2018-03-27T17:11:34.571Z,29.90
2018-03-27T17:14:03.409Z,28.00
2018-03-27T17:16:31.485Z,27.47
2018-03-27T17:18:59.655Z,28.10
2018-03-27T17:21:27.738Z,26.03
2018-03-27T17:23:55.874Z,25.20
2018-03-27T17:26:23.956Z,26.23
2018-03-27T17:28:52.249Z,24.17
2018-03-27T17:31:20.320Z,23.50
2018-03-27T17:33:48.515Z,25.83
2018-03-27T17:36:16.587Z,27.33
2018-03-27T17:38:44.662Z,23.37
2018-03-27T17:41:12.791Z,22.87
2018-03-27T17:43:40.856Z,23.10
2018-03-27T17:46:08.933Z,24.97
2018-03-27T17:48:37.122Z,24.30
2018-03-27T17:51:05.192Z,20.57
2018-03-27T17:53:33.263Z,20.83
2018-03-27T17:56:01.332Z,22.83
2018-03-27T17:58:29.400Z,21.23
2018-03-27T18:00:58.241Z,22.67
2018-03-27T18:03:26.585Z,24.33
2018-03-27T18:05:54.649Z,20.57
2018-03-27T18:08:22.735Z,21.20
2018-03-27T18:10:50.805Z,22.73
2018-03-27T18:13:18.896Z,20.53
2018-03-27T18:15:46.969Z,26.93
2018-03-27T18:18:15.100Z,103.50
2018-03-27T18:20:43.168Z,41.97
2018-03-27T18:23:12.024Z,24.80
2018-03-27T18:25:40.137Z,22.40
2018-03-27T18:28:08.197Z,26.50
2018-03-27T18:30:36.303Z,28.50
2018-03-27T18:33:05.143Z,25.87
2018-03-27T18:35:33.217Z,23.60
2018-03-27T18:38:02.048Z,24.07
2018-03-27T18:40:30.136Z,25.13
2018-03-27T18:42:58.229Z,26.73
2018-03-27T18:45:26.284Z,26.77
2018-03-27T18:47:54.406Z,26.60
2018-03-27T18:50:22.500Z,32.00
2018-03-27T18:52:51.452Z,38.23
2018-03-27T18:55:19.537Z,36.27
2018-03-27T18:57:47.615Z,32.10
2018-03-27T19:00:15.676Z,27.90
2018-03-27T19:02:44.495Z,27.57
2018-03-27T19:05:12.595Z,26.73
2018-03-27T19:07:40.706Z,26.80
2018-03-27T19:10:08.867Z,29.77
2018-03-27T19:12:36.959Z,29.37
2018-03-27T19:15:05.040Z,28.00
2018-03-27T19:17:33.105Z,29.33
2018-03-27T19:20:01.271Z,27.17
2018-03-27T19:22:31.092Z,28.07
2018-03-27T19:24:59.916Z,27.43
2018-03-27T19:27:27.977Z,26.83
2018-03-27T19:29:56.925Z,28.70
2018-03-27T19:32:25.761Z,26.80
2018-03-27T19:34:53.820Z,29.37
2018-03-27T19:37:21.889Z,26.97
2018-03-27T19:39:49.971Z,28.77
2018-03-27T19:42:18.037Z,28.73
2018-03-27T19:44:46.117Z,30.87
2018-03-27T19:47:14.224Z,30.03
2018-03-27T19:49:43.200Z,31.00
2018-03-27T19:52:12.194Z,29.13
2018-03-27T19:54:40.197Z,32.80
2018-03-27T19:57:08.276Z,29.53
2018-03-27T19:59:36.562Z,28.73
2018-03-27T20:02:04.622Z,27.03
2018-03-27T20:04:32.684Z,24.63
2018-03-27T20:07:00.782Z,26.47
2018-03-27T20:09:28.843Z,25.57
2018-03-27T20:11:56.926Z,24.93
2018-03-27T20:14:25.000Z,26.27
2018-03-27T20:16:53.085Z,25.90
2018-03-27T20:19:21.148Z,23.83
2018-03-27T20:21:49.225Z,25.40
2018-03-27T20:24:17.339Z,25.97
2018-03-27T20:26:45.428Z,26.23
2018-03-27T20:29:13.497Z,26.00
2018-03-27T20:31:41.565Z,25.37
2018-03-27T20:34:09.901Z,26.50
2018-03-27T20:36:38.988Z,28.23
2018-03-27T20:39:07.053Z,28.00
2018-03-27T20:41:35.121Z,28.83
2018-03-27T20:44:03.195Z,26.73
2018-03-27T20:46:32.043Z,25.30
2018-03-27T20:49:00.153Z,24.20
2018-03-27T20:51:28.205Z,26.17
2018-03-27T20:53:56.305Z,25.87
2018-03-27T20:56:24.348Z,31.40
2018-03-27T20:58:52.424Z,22.27
2018-03-27T21:01:20.481Z,25.67
2018-03-27T21:03:49.324Z,23.40
2018-03-27T21:06:17.400Z,24.90
2018-03-27T21:08:45.480Z,22.90
2018-03-27T21:11:14.125Z,22.23
2018-03-27T21:13:42.201Z,24.33
2018-03-27T21:16:10.256Z,22.17
2018-03-27T21:18:38.335Z,23.87
2018-03-27T21:21:06.442Z,22.13
2018-03-27T21:23:34.489Z,20.93
2018-03-27T21:26:02.574Z,19.87
2018-03-27T21:28:30.653Z,20.43
2018-03-27T21:30:58.722Z,17.93
2018-03-27T21:33:27.560Z,20.63
2018-03-27T21:35:55.624Z,21.63
2018-03-27T21:38:23.709Z,21.67
2018-03-27T21:40:51.780Z,24.90
2018-03-27T21:43:20.596Z,20.37
2018-03-27T21:45:48.678Z,21.33
2018-03-27T21:48:16.729Z,20.00
2018-03-27T21:50:44.898Z,35.20
2018-03-27T21:53:13.021Z,37.70
2018-03-27T21:55:41.868Z,23.57
2018-03-27T21:58:10.062Z,19.47
2018-03-27T22:00:38.109Z,19.07
2018-03-27T22:03:06.156Z,19.20
2018-03-27T22:05:34.238Z,20.10
2018-03-27T22:08:03.742Z,20.40
2018-03-27T22:10:31.817Z,15.07
2018-03-27T22:12:59.885Z,16.13
2018-03-27T22:15:27.957Z,16.77
2018-03-27T22:17:56.012Z,16.17
2018-03-27T22:20:24.084Z,11.57
2018-03-27T22:22:52.922Z,12.77
2018-03-27T22:25:21.766Z,13.40
2018-03-27T22:27:49.833Z,12.90
2018-03-27T22:30:17.909Z,13.90
2018-03-27T22:32:45.976Z,16.00
2018-03-27T22:35:14.026Z,12.77
2018-03-27T22:37:42.076Z,13.70
2018-03-27T22:40:10.153Z,11.67
2018-03-27T22:42:38.881Z,12.07
2018-03-27T22:45:07.945Z,9.80
2018-03-27T22:47:35.994Z,7.60
2018-03-27T22:50:04.243Z,8.13
2018-03-27T22:52:32.370Z,9.10
2018-03-27T22:55:00.418Z,8.30
2018-03-27T22:57:28.474Z,8.73
2018-03-27T22:59:56.539Z,7.93
2018-03-27T23:02:24.609Z,6.67
2018-03-27T23:04:52.641Z,6.30
2018-03-27T23:07:20.730Z,6.03
2018-03-27T23:09:48.784Z,6.20
2018-03-27T23:12:16.844Z,6.20
2018-03-27T23:14:44.912Z,5.70
2018-03-27T23:17:13.724Z,4.33
2018-03-27T23:19:41.759Z,5.47
2018-03-27T23:22:10.041Z,6.17
2018-03-27T23:24:39.514Z,6.13
2018-03-27T23:27:08.007Z,5.37
2018-03-27T23:29:36.047Z,5.97
2018-03-27T23:32:04.114Z,5.00
2018-03-27T23:34:32.163Z,5.13
2018-03-27T23:37:00.234Z,5.37
2018-03-27T23:39:28.283Z,4.47
2018-03-27T23:41:57.130Z,4.53
2018-03-27T23:44:25.190Z,5.27
2018-03-27T23:46:53.275Z,5.93
2018-03-27T23:49:21.321Z,4.53
2018-03-27T23:51:49.389Z,4.27
2018-03-27T23:54:17.443Z,5.40
2018-03-27T23:56:45.533Z,4.10
2018-03-27T23:59:13.593Z,5.13
